Terminal Aerodrome Forecast
Issued by NWS Brownsville, TX

Home | Current Version | Previous Version | Text Only | Print | Product List | Glossary On
Versions: 1 2 3 4 5 6 7 8 9 10 11 12 13 14 15 16 17 18 19 20
706
FTUS44 KBRO 290536
TAFMFE
TAF
KMFE 290536Z 2906/3006 14015G22KT P6SM OVC015
     FM291400 18018G24KT P6SM SCT040
     FM292000 15012G18KT P6SM SCT050 BKN250
     FM300300 14015KT P6SM OVC025=

USA.gov is the U.S. government's official web portal to all federal, state and local government web resources and services.